Terminal Aerodrome Forecast
Issued by NWS

Home | Current Version | Previous Version | Text Only | Print | Product List | Glossary On
Versions: 1 2 3 4 5 6 7 8 9 10 11 12 13 14
254
FTUS43 KGRR 232340
TAFJXN
TAF
KJXN 232340Z 2400/2424 VRB03KT P6SM BKN250
     FM241500 20009KT P6SM VCTS BKN060CB
     FM241800 VRB03KT 5SM BR VCSH OVC100
     FM242100 22008KT P6SM BKN200=

USA.gov is the U.S. government's official web portal to all federal, state and local government web resources and services.